Jette Viking Hv77 — 5QEP — position and weather

sailwx.info

Track history (hours):
 
Tides and Currents Weather Stations Pressure Air Temp Water Temp Dewpoint Dewpoint Depression Visibility Wind Speed Wind Dir Waves Ship Positions

Jette Viking Hv77

Last reported at 2017-Feb-14 14:33 UTC. Time now 2017-Feb-22 17:37 UTC.
Position N 55°15' E 009°44'.
Warning: this ship's position is 8 days out of date.

Length 16 m.

Type: Fishing. MMSI: 220046000.

Date/timePositionNaut miles runAvg speedWind from/ knotsBaromVisibWave heightAir tempDewpointWater temp
2017-Feb-14 14:33N 55°15' E 009°44'10 3.4
2017-Feb-14 11:33N 55°05' E 009°39'3 3.3
2017-Feb-14 10:33N 55°04' E 009°33'3 1.4
2017-Feb-14 08:32N 55°05' E 009°37'3 3.1
2017-Feb-14 07:31N 55°04' E 009°33'1 0.8
2017-Feb-14 06:33N 55°03' E 009°33'12 5.1
2017-Feb-14 04:11N 55°14' E 009°44'2 2.3
2017-Feb-14 03:20N 55°16' E 009°44'16 1.0
2017-Feb-13 11:06N 55°03' E 010°01'2 3.1
2017-Feb-13 10:33N 55°02' E 010°02'3 3.1
2017-Feb-13 09:31N 54°59' E 010°05'3 2.0
2017-Feb-13 08:12N 54°57' E 010°08'3 3.3
2017-Feb-13 07:25N 54°59' E 010°05'6 3.2
2017-Feb-13 05:33N 55°04' E 009°59'6 5.1
2017-Feb-13 04:18N 55°09' E 009°52'  
Track history (hours):
 
Tides and Currents Weather Stations Pressure Air Temp Water Temp Dewpoint Dewpoint Depression Visibility Wind Speed Wind Dir Waves Ship Positions

Jette Viking Hv77

Last reported at 2017-Feb-14 14:33 UTC. Time now 2017-Feb-22 17:37 UTC.
Position N 55°15' E 009°44'.
Warning: this ship's position is 8 days out of date.

Length 16 m.

Type: Fishing. MMSI: 220046000.

Date/timePositionNaut miles runAvg speedWind from/ knotsBaromVisibWave heightAir tempDewpointWater temp
2017-Feb-14 14:33N 55°15' E 009°44'10 3.4
2017-Feb-14 11:33N 55°05' E 009°39'3 3.3
2017-Feb-14 10:33N 55°04' E 009°33'3 1.4
2017-Feb-14 08:32N 55°05' E 009°37'3 3.1
2017-Feb-14 07:31N 55°04' E 009°33'1 0.8
2017-Feb-14 06:33N 55°03' E 009°33'12 5.1
2017-Feb-14 04:11N 55°14' E 009°44'2 2.3
2017-Feb-14 03:20N 55°16' E 009°44'16 1.0
2017-Feb-13 11:06N 55°03' E 010°01'2 3.1
2017-Feb-13 10:33N 55°02' E 010°02'3 3.1
2017-Feb-13 09:31N 54°59' E 010°05'3 2.0
2017-Feb-13 08:12N 54°57' E 010°08'3 3.3
2017-Feb-13 07:25N 54°59' E 010°05'6 3.2
2017-Feb-13 05:33N 55°04' E 009°59'6 5.1
2017-Feb-13 04:18N 55°09' E 009°52'  

Dump ship's entire track history